Latest Weather Observations for Bushy Park

IDT60901

Issued at 7:35 pm EDT Friday 24 October 2014 (issued every 10 minutes, with the page automatically refreshed every 10 minutes)

About weather observations | Map of Hobart area stations | Latest observations for Hobart area | Other Formats
Station Details ID: 095003 Name: BUSHY PARK (BUSHY PARK ESTATES) Lat: -42.71 Lon: 146.90 Height: 27.0 m
Data from the previous 72 hours. | See also: Recent months at Bushy Park
Date/Time
EDT
Tmp

°C
App
Tmp
°C
Dew
Point
°C
Rel
Hum
%
Delta-T

°C
Wind Press
QNH
hPa
Press
MSL
hPa
Rain
since
9 am
mm
Dir
 
Spd
km/h
Gust
km/h
Spd
kts
Gust
kts
24/07:30pm 17.2 17.5 13.5 79 2.1 NNW 4 9 2 5 - - 0.0
24/07:00pm 17.3 16.9 12.5 73 2.7 NW 6 11 3 6 - - 0.0
24/06:30pm 17.4 18.2 12.4 72 2.8 CALM 0 0 0 0 - - 0.0
24/06:00pm 18.2 19.0 12.5 69 3.2 CALM 0 0 0 0 - - 0.0
24/05:30pm 18.3 18.0 11.4 64 3.8 NNE 4 6 2 3 - - 0.0
24/05:00pm 18.3 17.3 12.2 67 3.4 N 9 11 5 6 - - 0.0
24/04:30pm 17.8 16.5 11.2 65 3.6 W 9 11 5 6 - - 0.0
24/04:00pm 17.7 16.3 10.9 64 3.7 NW 9 13 5 7 - - 0.0
24/03:30pm 17.6 17.7 10.3 62 3.9 CALM 0 0 0 0 - - 0.0
24/03:00pm 17.0 16.7 10.1 64 3.6 NNW 2 6 1 3 - - 0.0
24/02:30pm 16.5 16.1 9.7 64 3.6 ENE 2 7 1 4 - - 0.0
24/02:00pm 16.5 15.0 9.2 62 3.8 N 7 11 4 6 - - 0.0
24/01:30pm 15.6 14.1 9.0 65 3.4 N 7 9 4 5 - - 0.0
24/01:00pm 14.8 12.3 8.1 64 3.4 N 11 13 6 7 - - 0.0
24/12:30pm 14.9 12.7 8.0 63 3.5 N 9 11 5 6 - - 0.0
24/12:00pm 14.9 13.2 8.2 64 3.4 WSW 7 9 4 5 - - 0.0
24/11:30am 14.9 14.5 8.2 64 3.4 NE 0 0 0 0 - - 0.0
24/11:00am 14.2 12.3 7.6 64 3.3 E 7 13 4 7 - - 0.0
24/10:30am 13.0 10.6 7.1 67 2.9 SW 9 11 5 6 - - 0.0
24/10:00am 11.6 8.8 6.8 72 2.3 SSE 11 15 6 8 - - 0.0
24/09:30am 9.3 7.1 5.4 76 1.8 ENE 6 9 3 5 - - 0.0
24/09:00am 7.5 5.6 5.0 84 1.1 NNE 4 11 2 6 - - 0.0
24/08:30am 5.1 2.9 3.4 89 0.7 SE 4 7 2 4 - - 0.0
24/08:00am 4.1 1.3 3.1 93 0.4 S 7 9 4 5 - - 0.0
24/07:30am 3.4 0.6 3.4 100 0.0 ENE 7 9 4 5 - - 0.0
24/07:00am 1.7 -0.1 1.2 96 0.2 CALM 0 0 0 0 - - 0.0
24/06:30am 1.2 -2.0 0.7 96 0.2 N 7 9 4 5 - - 0.0
24/06:00am 0.5 - - - - CALM 0 0 0 0 - - 0.0
24/05:30am 0.9 -1.0 0.4 96 0.2 CALM 0 0 0 0 - - 0.0
24/05:00am 1.2 -1.1 0.7 96 0.2 S 2 9 1 5 - - 0.0
24/04:30am 1.6 -0.6 1.1 96 0.2 SSE 2 9 1 5 - - 0.0
24/04:00am 1.9 0.0 0.8 92 0.4 CALM 0 0 0 0 - - 0.0
24/03:30am 2.2 -0.7 1.4 94 0.3 S 6 7 3 4 - - 0.0
24/03:00am 2.5 -0.5 1.7 94 0.3 SSW 7 9 4 5 - - 0.0
24/02:30am 3.1 0.3 2.1 93 0.4 N 6 9 3 5 - - 0.0
24/02:00am 3.6 0.3 2.4 92 0.5 SW 9 13 5 7 - - 0.0
24/01:30am 4.2 1.0 3.0 92 0.5 WSW 9 13 5 7 - - 0.0
24/01:00am 4.9 1.8 3.5 91 0.6 W 9 13 5 7 - - 0.0
24/12:30am 5.3 3.5 3.6 89 0.7 NNW 2 7 1 4 - - 0.0
24/12:00am 6.2 3.5 3.9 85 1.0 WSW 7 11 4 6 - - 0.0
 
Date/Time
EDT
Tmp

°C
App
Tmp
°C
Dew
Point
°C
Rel
Hum
%
Delta-T

°C
Wind Press
QNH
hPa
Press
MSL
hPa
Rain
since
9 am
mm
Dir
 
Spd
km/h
Gust
km/h
Spd
kts
Gust
kts
23/11:30pm 7.0 5.4 4.5 84 1.1 ENE 2 7 1 4 - - 0.0
23/11:00pm 7.8 5.6 5.1 83 1.2 ESE 6 9 3 5 - - 0.0
23/10:30pm 8.9 6.0 4.9 76 1.8 SSE 9 15 5 8 - - 0.0
23/10:00pm 10.3 5.9 4.6 68 2.6 SSE 17 24 9 13 - - 0.0
23/09:30pm 10.7 5.7 4.5 65 2.8 SSE 20 26 11 14 - - 0.0
23/09:00pm 10.9 5.6 4.8 66 2.8 SSE 22 32 12 17 - - 0.0
23/08:30pm 11.3 6.6 5.0 65 2.9 SSE 19 28 10 15 - - 0.0
23/08:00pm 12.6 7.5 4.3 57 3.8 SE 20 30 11 16 - - 0.0
23/07:30pm 13.3 8.4 5.0 57 3.9 SSE 20 28 11 15 - - 0.0
23/07:00pm 14.5 9.3 5.5 54 4.3 SSE 22 32 12 17 - - 0.0
23/06:30pm 15.9 11.3 5.6 50 4.9 SE 19 28 10 15 - - 0.0
23/06:00pm 16.8 11.2 5.2 46 5.6 SSE 24 33 13 18 - - 0.0
23/05:30pm 17.4 11.4 5.3 45 5.8 SSE 26 41 14 22 - - 0.0
23/05:00pm 17.8 12.1 5.0 43 6.1 SSE 24 33 13 18 - - 0.0
23/04:30pm 17.8 12.5 5.0 43 6.1 SSE 22 30 12 16 - - 0.0
23/04:00pm 18.0 12.6 4.5 41 6.4 SSE 22 28 12 15 - - 0.0
23/03:30pm 18.1 12.9 3.4 37 6.9 SSE 20 28 11 15 - - 0.0
23/03:00pm 18.5 12.4 2.9 35 7.2 SSE 24 33 13 18 - - 0.0
23/02:30pm 17.9 12.2 2.8 36 6.9 SSE 22 35 12 19 - - 0.0
23/02:00pm 17.4 12.4 3.5 39 6.5 SE 19 28 10 15 - - 0.0
23/01:30pm 17.3 12.3 4.6 43 6.0 SSE 20 32 11 17 - - 0.0
23/01:00pm 16.7 11.8 4.2 43 5.9 SSE 19 28 10 15 - - 0.0
23/12:30pm 16.3 12.6 4.2 44 5.7 SSW 13 19 7 10 - - 0.0
23/12:00pm 16.0 12.6 3.8 44 5.6 SSE 11 17 6 9 - - 0.0
23/11:30am 15.3 12.4 4.5 48 5.0 E 9 17 5 9 - - 0.0
23/11:00am 14.3 11.3 3.9 49 4.8 E 9 13 5 7 - - 0.0
23/10:30am 14.5 11.6 4.7 52 4.6 SE 9 13 5 7 - - 0.0
23/10:00am 14.5 11.1 3.9 49 4.9 S 11 15 6 8 - - 0.0
23/09:30am 13.5 10.1 3.9 52 4.4 E 11 17 6 9 - - 0.0
23/09:00am 13.2 10.3 4.6 56 4.0 SE 9 13 5 7 - - 0.0
23/08:30am 12.1 9.8 5.0 62 3.3 NE 6 11 3 6 - - 0.0
23/08:00am 10.8 8.3 4.7 66 2.8 N 7 9 4 5 - - 0.0
23/07:30am 9.5 7.4 5.8 78 1.7 E 6 9 3 5 - - 0.0
23/07:00am 7.2 4.4 5.2 87 0.9 ESE 9 13 5 7 - - 0.0
23/06:30am 5.9 3.0 4.5 91 0.6 SSE 9 13 5 7 - - 0.0
23/06:00am 6.1 2.8 4.5 89 0.7 S 11 15 6 8 - - 0.0
23/05:30am 6.9 5.1 5.3 89 0.7 ESE 4 9 2 5 - - 0.0
23/05:00am 8.3 6.1 6.1 86 1.0 S 7 11 4 6 - - 0.0
23/04:30am 9.5 6.2 6.3 80 1.5 SSE 13 17 7 9 - - 0.0
23/04:00am 9.7 7.0 7.2 84 1.2 SSE 11 15 6 8 - - 0.0
23/03:30am 10.8 7.8 7.5 80 1.6 SSE 13 19 7 10 - - 0.0
23/03:00am 11.7 8.8 8.3 79 1.7 SSE 13 17 7 9 - - 0.0
23/02:30am 12.2 8.9 8.0 75 2.1 S 15 20 8 11 - - 0.0
23/02:00am 13.7 12.0 8.3 70 2.7 ENE 7 11 4 6 - - 0.0
23/01:30am 15.0 11.8 8.3 64 3.4 E 15 28 8 15 - - 0.0
23/01:00am 15.3 12.8 9.6 69 3.0 ENE 13 22 7 12 - - 0.0
23/12:30am 15.8 13.7 9.9 68 3.1 ESE 11 26 6 14 - - 0.0
23/12:00am 15.9 13.6 10.3 69 3.0 SE 13 30 7 16 - - 0.0
 
Date/Time
EDT
Tmp

°C
App
Tmp
°C
Dew
Point
°C
Rel
Hum
%
Delta-T

°C
Wind Press
QNH
hPa
Press
MSL
hPa
Rain
since
9 am
mm
Dir
 
Spd
km/h
Gust
km/h
Spd
kts
Gust
kts
22/11:30pm 15.6 13.8 10.7 72 2.6 S 11 17 6 9 - - 0.0
22/11:00pm 16.2 13.5 10.4 68 3.1 SW 15 26 8 14 - - 0.0
22/10:30pm 16.3 13.9 10.1 66 3.3 WSW 13 19 7 10 - - 0.0
22/10:00pm 17.2 14.0 9.9 62 3.8 SW 17 28 9 15 - - 0.0
22/09:30pm 17.0 12.9 10.1 64 3.6 SW 22 32 12 17 - - 0.0
22/09:00pm 17.3 12.0 9.8 61 3.9 SW 28 37 15 20 - - 0.0
22/08:51pm 17.4 12.1 9.9 61 4.0 SW 28 43 15 23 - - 0.0
22/08:30pm 17.8 16.5 9.9 60 4.2 S 7 15 4 8 - - 0.0
22/08:00pm 18.1 14.0 10.1 59 4.3 SW 22 39 12 21 - - 0.0
22/07:30pm 18.9 12.3 10.0 56 4.7 WSW 35 59 19 32 - - 0.0
22/07:07pm 20.2 14.3 10.3 53 5.4 SW 32 50 17 27 - - 0.0
22/07:00pm 20.5 14.5 10.2 51 5.6 SW 32 44 17 24 - - 0.0
22/06:30pm 21.6 16.0 10.3 48 6.2 WSW 30 48 16 26 - - 0.0
22/06:28pm 21.6 15.9 9.8 47 6.4 WSW 30 48 16 26 - - 0.0
22/06:00pm 22.7 21.0 9.7 43 7.0 WSW 9 17 5 9 - - 0.0
22/05:30pm 23.3 21.0 8.9 40 7.7 WSW 11 19 6 10 - - 0.0
22/05:00pm 24.1 22.2 9.0 38 8.1 W 9 17 5 9 - - 0.0
22/04:30pm 25.1 22.8 9.0 36 8.7 WSW 11 17 6 9 - - 0.0
22/04:00pm 25.4 23.1 5.9 28 10.0 ENE 7 26 4 14 - - 0.0
22/03:30pm 25.0 23.3 8.3 34 8.9 ENE 7 9 4 5 - - 0.0
22/03:00pm 24.8 23.0 7.2 32 9.2 SE 6 7 3 4 - - 0.0
22/02:30pm 23.4 21.1 5.8 32 8.9 S 7 11 4 6 - - 0.0
22/02:00pm 22.7 20.4 4.9 31 8.8 SSW 6 7 3 4 - - 0.0
22/01:30pm 21.5 18.8 5.6 35 7.9 ENE 9 11 5 6 - - 0.0
22/01:00pm 21.5 19.0 6.4 37 7.6 NNE 9 11 5 6 - - 0.0
22/12:30pm 20.3 17.6 5.4 37 7.3 NNE 9 15 5 8 - - 0.0
22/12:00pm 19.1 16.3 5.0 39 6.8 NNE 9 13 5 7 - - 0.0
22/11:30am 17.9 15.1 5.2 43 6.1 N 9 13 5 7 - - 0.0
22/11:00am 16.1 13.6 4.8 47 5.3 NE 7 11 4 6 - - 0.0
22/10:30am 14.5 11.7 5.0 53 4.5 NNE 9 11 5 6 - - 0.0
22/10:00am 13.3 10.7 6.2 62 3.4 NE 9 11 5 6 - - 0.0
22/09:30am 11.4 9.5 7.5 77 1.9 NNE 7 11 4 6 - - 0.0
22/09:00am 8.7 6.4 5.6 81 1.4 NNE 7 11 4 6 - - 0.0
22/08:30am 6.6 5.5 5.0 89 0.7 CALM 0 0 0 0 - - 0.0
22/08:00am 6.0 4.5 4.9 93 0.5 ESE 2 7 1 4 - - 0.0
22/07:30am 5.5 2.9 4.3 92 0.5 NNE 7 7 4 4 - - 0.0
22/07:00am 3.7 2.1 2.7 93 0.4 CALM 0 0 0 0 - - 0.0
22/06:30am 2.4 0.7 1.6 94 0.3 CALM 0 0 0 0 - - 0.0
22/06:00am 2.3 0.6 1.8 96 0.2 CALM 0 0 0 0 - - 0.0
22/05:30am 2.9 0.5 2.1 94 0.3 NW 4 9 2 5 - - 0.0
22/05:00am 2.8 0.7 2.0 94 0.3 SW 2 9 1 5 - - 0.0
22/04:30am 2.8 0.7 2.0 94 0.3 NE 2 7 1 4 - - 0.0
22/04:00am 3.1 1.5 2.4 95 0.3 CALM 0 0 0 0 - - 0.0
22/03:30am 3.2 0.9 2.5 95 0.3 SW 4 9 2 5 - - 0.0
22/03:00am 3.8 1.9 3.1 95 0.3 NNE 2 6 1 3 - - 0.0
22/02:30am 4.4 2.6 3.4 93 0.4 N 2 7 1 4 - - 0.0
22/02:00am 4.7 2.0 3.5 92 0.5 WSW 7 9 4 5 - - 0.0
22/01:30am 5.2 3.1 4.0 92 0.5 W 4 11 2 6 - - 0.0
22/01:00am 5.7 3.3 4.3 91 0.6 SSW 6 11 3 6 - - 0.0
22/12:30am 6.7 3.8 4.9 88 0.8 WNW 9 13 5 7 - - 0.0
22/12:00am 6.7 4.8 4.9 88 0.8 NNE 4 9 2 5 - - 0.0
 
Date/Time
EDT
Tmp

°C
App
Tmp
°C
Dew
Point
°C
Rel
Hum
%
Delta-T

°C
Wind Press
QNH
hPa
Press
MSL
hPa
Rain
since
9 am
mm
Dir
 
Spd
km/h
Gust
km/h
Spd
kts
Gust
kts
21/11:30pm 7.1 4.9 5.1 87 0.9 WSW 6 9 3 5 - - 0.0
21/11:00pm 8.4 6.2 6.0 85 1.1 W 7 11 4 6 - - 0.0
21/10:30pm 8.7 7.8 6.1 84 1.2 CALM 0 0 0 0 - - 0.0
21/10:00pm 9.1 6.4 5.8 80 1.5 WSW 9 13 5 7 - - 0.0
21/09:30pm 10.0 8.0 6.4 78 1.7 WSW 6 9 3 5 - - 0.0
21/09:00pm 11.5 9.4 6.7 72 2.3 SSW 7 13 4 7 - - 0.0
21/08:30pm 12.7 11.0 6.0 63 3.2 ENE 4 9 2 5 - - 0.0
21/08:00pm 14.2 11.6 5.9 57 4.0 E 9 11 5 6 - - 0.0

Latest Capital City Observations: Canberra | Sydney | Melbourne | Brisbane | Adelaide | Perth | Hobart | Darwin

Other Formats:

Comma delimited format used in spreadsheet applications
http://www.bom.gov.au/fwo/IDT60901/IDT60901.94964.axf

JavaScript Object Notation format (JSON) in row-major order
http://www.bom.gov.au/fwo/IDT60901/IDT60901.94964.json